Time;durP1;ratioP1;P1;durP2;ratioP2;P2;SDS_P1;SDS_P2;PMS_P1;PMS_P2;Temp;Humidity;BMP_temperature;BMP_pressure;BME280_temperature;BME280_humidity;BME280_pressure;Samples;Min_cycle;Max_cycle;Signal;HPM_P1;HPM_P2
2022/06/19 00:01:49;;;;;;;12.50;5.13;;;24.20;96.00;;;;;;5045997;28;20417;-71
2022/06/19 00:04:15;;;;;;;10.40;4.47;;;24.10;96.50;;;;;;5045772;28;20417;-69
2022/06/19 00:06:42;;;;;;;10.27;4.43;;;24.00;96.70;;;;;;5044949;28;20190;-69
2022/06/19 00:09:08;;;;;;;10.00;4.97;;;24.00;96.90;;;;;;5044304;28;20410;-70
2022/06/19 00:11:34;;;;;;;7.27;4.87;;;23.80;97.20;;;;;;5045305;28;20500;-70
2022/06/19 00:14:01;;;;;;;19.53;5.40;;;23.70;97.30;;;;;;5045479;28;20734;-70
2022/06/19 00:16:27;;;;;;;9.20;3.80;;;23.60;97.70;;;;;;5045316;28;20433;-71
2022/06/19 00:18:52;;;;;;;7.90;4.77;;;23.60;97.90;;;;;;5045297;28;20426;-71
2022/06/19 00:21:18;;;;;;;14.53;4.33;;;23.60;97.90;;;;;;5045169;28;21113;-70
2022/06/19 00:23:45;;;;;;;8.40;4.87;;;23.50;97.90;;;;;;5045099;28;20179;-71
2022/06/19 00:26:11;;;;;;;10.73;4.20;;;23.50;97.90;;;;;;5044998;28;20471;-70
2022/06/19 00:28:37;;;;;;;9.70;4.77;;;23.60;97.70;;;;;;5045340;28;20436;-70
2022/06/19 00:31:03;;;;;;;9.17;4.33;;;23.70;97.50;;;;;;5045038;28;20409;-70
2022/06/19 00:33:28;;;;;;;12.33;5.67;;;23.80;97.50;;;;;;5045126;28;20202;-70
2022/06/19 00:35:54;;;;;;;7.47;4.10;;;23.80;97.30;;;;;;5044316;28;20210;-71
2022/06/19 00:38:20;;;;;;;10.50;5.00;;;23.80;97.70;;;;;;5045247;28;20558;-70
2022/06/19 00:40:46;;;;;;;8.97;4.20;;;23.80;98.10;;;;;;5044894;28;20180;-71
2022/06/19 00:43:11;;;;;;;11.07;5.27;;;23.70;98.20;;;;;;5045188;28;20179;-68
2022/06/19 00:45:42;;;;;;;12.80;4.70;;;23.60;98.60;;;;;;5044749;28;20225;-69
2022/06/19 00:48:37;;;;;;;8.60;4.77;;;23.60;98.80;;;;;;5044819;28;20177;-69
2022/06/19 00:51:05;;;;;;;13.60;5.60;;;23.60;98.90;;;;;;5044089;28;20797;-71
2022/06/19 00:53:42;;;;;;;8.63;4.33;;;23.50;98.90;;;;;;5043845;28;20543;-70
2022/06/19 00:56:16;;;;;;;9.73;3.93;;;23.50;99.10;;;;;;5044523;28;20432;-71
2022/06/19 00:58:43;;;;;;;6.53;4.20;;;23.60;99.10;;;;;;5044457;28;20832;-71
2022/06/19 01:01:13;;;;;;;8.27;3.70;;;23.60;98.90;;;;;;5044407;28;20409;-72
2022/06/19 01:03:59;;;;;;;6.73;4.10;;;23.60;99.10;;;;;;5044902;28;20531;-70
2022/06/19 01:06:26;;;;;;;7.40;4.17;;;23.60;99.20;;;;;;5043915;28;20421;-70
2022/06/19 01:08:52;;;;;;;7.70;4.27;;;23.50;99.40;;;;;;5044042;28;20421;-70
2022/06/19 01:11:20;;;;;;;5.70;3.33;;;23.50;99.50;;;;;;5044253;28;20421;-70
2022/06/19 01:13:47;;;;;;;8.50;4.20;;;23.50;99.70;;;;;;5044350;28;20455;-70
2022/06/19 01:16:14;;;;;;;6.20;4.07;;;23.60;99.30;;;;;;5043926;28;20524;-70
2022/06/19 01:18:40;;;;;;;8.70;3.87;;;23.60;99.70;;;;;;5044295;28;20523;-70
2022/06/19 01:21:32;;;;;;;7.73;3.80;;;23.60;99.50;;;;;;5043851;28;20428;-70
2022/06/19 01:24:34;;;;;;;10.73;4.33;;;23.60;99.60;;;;;;5034605;28;20925;-70
2022/06/19 01:27:01;;;;;;;7.97;3.87;;;23.40;99.70;;;;;;5044046;28;21015;-71
2022/06/19 01:29:33;;;;;;;11.90;5.20;;;23.30;99.90;;;;;;5044125;28;20408;-70
2022/06/19 01:32:02;;;;;;;11.10;4.73;;;23.20;99.90;;;;;;5044083;28;20507;-73
2022/06/19 01:34:35;;;;;;;9.30;4.30;;;23.00;99.90;;;;;;5044071;28;20417;-69
2022/06/19 01:37:24;;;;;;;6.90;4.20;;;23.00;99.90;;;;;;5043495;28;20464;-71
2022/06/19 01:40:14;;;;;;;9.63;4.43;;;23.00;99.90;;;;;;5043425;28;20397;-69
2022/06/19 01:42:40;;;;;;;9.73;4.00;;;23.00;99.90;;;;;;5043340;28;20429;-70
2022/06/19 01:45:06;;;;;;;10.33;3.80;;;23.00;99.90;;;;;;5043826;28;20447;-70
2022/06/19 01:47:32;;;;;;;12.70;4.63;;;23.00;99.90;;;;;;5044047;28;20273;-70
2022/06/19 01:49:59;;;;;;;6.70;4.13;;;23.10;99.90;;;;;;5043877;28;21004;-69
2022/06/19 01:52:28;;;;;;;9.13;4.83;;;23.10;99.90;;;;;;5043620;28;20196;-70
2022/06/19 01:54:59;;;;;;;10.20;4.00;;;23.10;99.90;;;;;;5043657;28;20424;-70
2022/06/19 01:57:27;;;;;;;12.07;4.67;;;23.30;99.30;;;;;;5043720;28;20419;-70
2022/06/19 01:59:53;;;;;;;11.37;4.83;;;23.30;99.50;;;;;;5043578;28;20413;-70
2022/06/19 02:02:20;;;;;;;8.30;3.90;;;23.30;99.70;;;;;;5042089;28;20554;-70
2022/06/19 02:04:46;;;;;;;8.63;4.37;;;23.20;99.90;;;;;;5043278;28;20424;-70
2022/06/19 02:07:17;;;;;;;7.33;3.97;;;23.30;99.90;;;;;;5041955;28;20423;-70
2022/06/19 02:09:44;;;;;;;6.50;4.17;;;23.30;99.90;;;;;;5042155;28;20345;-70
2022/06/19 02:12:10;;;;;;;10.00;3.60;;;23.10;99.90;;;;;;5043341;28;20456;-69
2022/06/19 02:14:36;;;;;;;10.53;4.13;;;23.00;99.90;;;;;;5043476;28;20409;-69
2022/06/19 02:17:10;;;;;;;8.73;4.27;;;22.80;99.90;;;;;;5043301;28;20828;-68
2022/06/19 02:19:35;;;;;;;9.93;4.33;;;22.70;99.90;;;;;;5044161;28;20651;-69
2022/06/19 02:22:01;;;;;;;9.80;4.20;;;22.50;99.90;;;;;;5041573;28;20428;-69
2022/06/19 02:24:27;;;;;;;9.47;3.83;;;22.60;99.90;;;;;;5043715;28;20186;-69
2022/06/19 02:26:55;;;;;;;9.60;3.87;;;22.70;99.90;;;;;;5042884;28;20175;-69
2022/06/19 02:29:21;;;;;;;9.83;4.10;;;22.70;99.90;;;;;;5043214;28;20421;-68
2022/06/19 02:31:50;;;;;;;8.27;4.10;;;22.70;99.90;;;;;;5043522;28;20486;-69
2022/06/19 02:34:29;;;;;;;9.20;4.07;;;22.80;99.90;;;;;;5043342;28;20174;-69
2022/06/19 02:36:56;;;;;;;8.37;4.50;;;22.80;99.90;;;;;;5043749;22;20513;-72
2022/06/19 02:39:35;;;;;;;8.10;3.77;;;22.80;99.90;;;;;;5023429;28;20437;-72
2022/06/19 02:42:26;;;;;;;11.00;4.60;;;22.80;99.90;;;;;;5021868;28;20422;-72
2022/06/19 02:44:56;;;;;;;7.57;3.80;;;22.90;99.90;;;;;;5023342;28;20961;-72
2022/06/19 02:47:26;;;;;;;8.97;4.40;;;22.80;99.90;;;;;;5023535;28;20438;-74
2022/06/19 02:49:53;;;;;;;9.40;4.60;;;22.70;99.90;;;;;;5023201;28;20468;-72
2022/06/19 02:52:19;;;;;;;10.00;4.67;;;22.30;99.90;;;;;;5022704;28;20850;-74
2022/06/19 02:54:45;;;;;;;9.50;4.00;;;22.20;99.90;;;;;;5023054;28;20469;-72
2022/06/19 02:57:13;;;;;;;9.63;3.60;;;22.20;99.90;;;;;;5022977;28;20429;-72
2022/06/19 02:59:40;;;;;;;9.13;4.07;;;22.30;99.90;;;;;;5023051;28;20473;-70
2022/06/19 03:02:06;;;;;;;10.67;3.87;;;22.30;99.90;;;;;;5023390;28;20823;-71
2022/06/19 03:04:36;;;;;;;10.20;4.13;;;22.30;99.90;;;;;;5022944;28;20478;-72
2022/06/19 03:07:02;;;;;;;9.63;3.90;;;22.40;99.90;;;;;;5021391;28;20575;-72
2022/06/19 03:09:27;;;;;;;7.40;3.83;;;22.40;99.90;;;;;;5023308;28;20429;-72
2022/06/19 03:11:53;;;;;;;8.87;4.13;;;22.40;99.90;;;;;;5022762;28;20262;-72
2022/06/19 03:14:18;;;;;;;12.93;4.63;;;22.40;99.90;;;;;;5023286;28;20179;-73
2022/06/19 03:16:45;;;;;;;7.87;4.57;;;22.40;99.90;;;;;;5025099;28;20711;-73
2022/06/19 03:19:11;;;;;;;6.87;3.53;;;22.40;99.90;;;;;;5026866;28;20262;-73
2022/06/19 03:21:37;;;;;;;11.83;4.63;;;22.40;99.90;;;;;;5026345;28;20410;-73
2022/06/19 03:24:03;;;;;;;11.93;4.50;;;22.50;99.90;;;;;;5026665;28;20456;-73
2022/06/19 03:26:30;;;;;;;6.63;3.47;;;22.50;99.90;;;;;;5026258;28;20199;-72
2022/06/19 03:28:56;;;;;;;9.13;4.30;;;22.60;99.90;;;;;;5026417;28;20445;-72
2022/06/19 03:31:24;;;;;;;10.60;4.20;;;22.60;99.90;;;;;;5026228;28;20827;-72
2022/06/19 03:33:50;;;;;;;9.83;4.30;;;22.70;99.90;;;;;;5026473;28;20475;-73
2022/06/19 03:36:16;;;;;;;8.60;3.60;;;22.80;99.90;;;;;;5025580;28;20449;-73
2022/06/19 03:38:42;;;;;;;6.30;3.30;;;22.70;99.90;;;;;;5026251;28;20406;-73
2022/06/19 03:41:08;;;;;;;7.00;3.50;;;22.70;99.90;;;;;;5025937;28;20446;-73
2022/06/19 03:43:35;;;;;;;9.53;3.90;;;22.70;99.90;;;;;;5025999;28;20187;-72
2022/06/19 03:46:07;;;;;;;9.87;4.73;;;22.70;99.90;;;;;;5026112;28;20430;-73
2022/06/19 03:48:33;;;;;;;6.07;3.90;;;22.80;99.90;;;;;;5026106;28;20410;-71
2022/06/19 03:50:58;;;;;;;9.87;3.67;;;22.70;99.90;;;;;;5025610;28;20887;-71
2022/06/19 03:53:24;;;;;;;9.73;4.40;;;22.70;99.90;;;;;;5025856;28;20203;-72
2022/06/19 03:55:50;;;;;;;22.10;4.53;;;22.60;99.90;;;;;;5025745;28;20209;-72
2022/06/19 03:58:16;;;;;;;10.90;4.10;;;22.60;99.90;;;;;;5025569;28;20644;-74
2022/06/19 04:00:42;;;;;;;8.10;3.40;;;22.50;99.90;;;;;;5024486;28;20183;-73
2022/06/19 04:03:07;;;;;;;10.53;4.40;;;22.60;99.90;;;;;;5024628;28;20232;-72
2022/06/19 04:05:33;;;;;;;5.93;3.30;;;22.80;99.90;;;;;;5023993;28;20227;-72
2022/06/19 04:07:59;;;;;;;12.80;4.27;;;23.00;99.90;;;;;;5025526;28;20234;-71
2022/06/19 04:10:25;;;;;;;12.23;4.20;;;23.00;99.90;;;;;;5025540;28;20266;-72
2022/06/19 04:12:52;;;;;;;8.93;3.63;;;22.90;99.90;;;;;;5025515;28;20548;-72
2022/06/19 04:15:17;;;;;;;8.70;4.40;;;23.00;99.90;;;;;;5025475;28;20183;-74
2022/06/19 04:17:44;;;;;;;7.70;3.97;;;23.00;99.90;;;;;;5025835;28;20500;-71
2022/06/19 04:20:10;;;;;;;8.70;3.97;;;23.20;99.90;;;;;;5025189;28;20505;-72
2022/06/19 04:22:37;;;;;;;14.27;4.50;;;23.10;99.90;;;;;;5025514;28;20187;-72
2022/06/19 04:25:05;;;;;;;11.63;4.60;;;23.20;99.90;;;;;;5025237;28;20433;-71
2022/06/19 04:27:31;;;;;;;8.23;4.10;;;23.30;99.90;;;;;;5024862;28;20503;-72
2022/06/19 04:29:57;;;;;;;9.40;4.23;;;23.30;99.90;;;;;;5025297;28;20417;-72
2022/06/19 04:32:22;;;;;;;13.77;4.40;;;23.40;99.90;;;;;;5025086;28;20560;-73
2022/06/19 04:34:48;;;;;;;7.83;4.20;;;23.40;99.90;;;;;;5025220;28;20659;-73
2022/06/19 04:37:13;;;;;;;12.87;4.20;;;23.30;99.90;;;;;;5023323;28;20334;-72
2022/06/19 04:39:39;;;;;;;11.93;4.20;;;23.30;99.90;;;;;;5024988;28;21268;-73
2022/06/19 04:42:07;;;;;;;13.23;5.20;;;23.50;99.90;;;;;;5024819;28;20261;-73
2022/06/19 04:44:33;;;;;;;10.70;4.80;;;23.60;99.90;;;;;;5024799;28;20179;-72
2022/06/19 04:46:58;;;;;;;17.27;4.87;;;23.50;99.90;;;;;;5025029;28;20421;-73
2022/06/19 04:49:24;;;;;;;11.70;4.57;;;23.50;99.90;;;;;;5025345;28;20194;-72
2022/06/19 04:51:49;;;;;;;9.23;4.40;;;23.40;99.90;;;;;;5024782;28;21390;-73
2022/06/19 04:54:15;;;;;;;12.80;5.03;;;23.50;99.90;;;;;;5025016;28;20209;-72
2022/06/19 04:56:41;;;;;;;7.33;4.70;;;23.50;99.90;;;;;;5024605;28;20206;-72
2022/06/19 04:59:07;;;;;;;6.50;3.53;;;23.60;99.90;;;;;;5024699;28;20257;-72
2022/06/19 05:01:35;;;;;;;9.80;4.77;;;23.70;99.90;;;;;;5023362;28;20183;-73
2022/06/19 05:04:04;;;;;;;7.03;4.27;;;23.80;99.90;;;;;;5025039;28;20211;-73
2022/06/19 05:06:30;;;;;;;12.17;4.37;;;23.90;99.90;;;;;;5024230;28;20499;-73
2022/06/19 05:08:57;;;;;;;8.97;4.10;;;24.00;99.90;;;;;;5024370;28;20420;-73
2022/06/19 05:11:23;;;;;;;7.17;4.10;;;24.10;99.90;;;;;;5024327;28;20770;-73
2022/06/19 05:13:49;;;;;;;10.93;5.00;;;24.10;99.90;;;;;;5024389;28;20458;-73
2022/06/19 05:16:17;;;;;;;10.87;4.37;;;24.30;99.90;;;;;;5024511;28;20436;-72
2022/06/19 05:18:44;;;;;;;8.80;3.90;;;24.50;99.90;;;;;;5024291;28;20414;-72
2022/06/19 05:21:10;;;;;;;7.57;3.70;;;24.60;99.90;;;;;;5024151;28;20464;-72
2022/06/19 05:23:42;;;;;;;8.10;4.80;;;24.70;99.90;;;;;;5024070;28;20418;-73
2022/06/19 05:26:30;;;;;;;11.23;4.40;;;24.90;99.80;;;;;;5023998;28;20525;-72
2022/06/19 05:28:56;;;;;;;15.43;5.50;;;25.10;99.60;;;;;;5023977;28;20776;-72
2022/06/19 05:31:23;;;;;;;11.57;4.67;;;25.20;99.50;;;;;;5024190;28;20501;-72
2022/06/19 05:33:49;;;;;;;11.77;4.33;;;25.30;98.50;;;;;;5023641;28;20842;-73
2022/06/19 05:36:16;;;;;;;14.40;5.20;;;25.30;98.40;;;;;;5021934;28;20469;-73
2022/06/19 05:38:42;;;;;;;10.23;4.30;;;25.50;98.00;;;;;;5023883;28;20418;-72
2022/06/19 05:41:08;;;;;;;11.23;4.00;;;25.60;97.30;;;;;;5023678;28;20410;-73
2022/06/19 05:43:35;;;;;;;11.37;4.30;;;25.70;96.40;;;;;;5023890;28;20860;-73
2022/06/19 05:46:07;;;;;;;6.10;3.80;;;25.90;96.50;;;;;;5023884;28;20200;-73
2022/06/19 05:48:36;;;;;;;11.47;4.33;;;26.00;96.50;;;;;;5024111;28;20784;-73
2022/06/19 05:51:05;;;;;;;9.53;4.37;;;26.20;95.80;;;;;;5024101;28;20418;-72
2022/06/19 05:53:35;;;;;;;9.50;4.90;;;26.40;95.40;;;;;;5023758;28;20464;-73
2022/06/19 05:56:01;;;;;;;12.37;4.23;;;26.50;95.40;;;;;;5023529;28;20473;-73
2022/06/19 05:58:27;;;;;;;10.40;5.40;;;26.70;96.40;;;;;;5023562;28;20508;-73
2022/06/19 06:00:53;;;;;;;12.50;5.00;;;26.70;95.00;;;;;;5023814;28;20669;-73
2022/06/19 06:03:20;;;;;;;12.63;4.90;;;26.90;94.30;;;;;;5023580;28;20418;-73
2022/06/19 06:05:47;;;;;;;9.13;3.30;;;27.10;94.90;;;;;;5023532;28;21215;-73
2022/06/19 06:08:13;;;;;;;14.80;4.80;;;27.30;95.00;;;;;;5023676;28;20456;-73
2022/06/19 06:10:39;;;;;;;9.80;3.77;;;27.30;94.90;;;;;;5023345;28;20418;-73
2022/06/19 06:13:05;;;;;;;11.10;4.90;;;27.40;95.20;;;;;;5023569;28;20988;-73
2022/06/19 06:15:30;;;;;;;9.83;4.50;;;27.40;94.00;;;;;;5023405;28;20410;-73
2022/06/19 06:17:59;;;;;;;8.90;4.57;;;27.40;94.00;;;;;;5023867;28;20288;-73
2022/06/19 06:20:25;;;;;;;10.60;4.87;;;27.50;94.00;;;;;;5023675;28;20220;-73
2022/06/19 06:22:51;;;;;;;16.10;5.33;;;27.60;93.80;;;;;;5023203;28;20410;-73
2022/06/19 06:25:17;;;;;;;11.40;4.00;;;27.70;93.60;;;;;;5022246;28;20436;-73
2022/06/19 06:27:42;;;;;;;8.20;4.17;;;27.80;93.00;;;;;;5023252;28;20190;-73
2022/06/19 06:30:11;;;;;;;9.93;4.30;;;28.00;93.10;;;;;;5023432;28;20190;-74
2022/06/19 06:32:36;;;;;;;13.50;4.33;;;28.10;92.30;;;;;;5023823;28;20624;-73
2022/06/19 06:35:02;;;;;;;12.23;4.70;;;28.20;93.00;;;;;;5023312;28;20520;-74
2022/06/19 06:37:28;;;;;;;12.47;4.53;;;28.40;92.40;;;;;;5022998;28;20298;-73
2022/06/19 06:39:54;;;;;;;9.03;4.30;;;28.60;91.90;;;;;;5023377;28;20501;-73
2022/06/19 06:42:19;;;;;;;10.40;4.20;;;28.70;92.40;;;;;;5023202;28;20241;-74
2022/06/19 06:44:45;;;;;;;13.50;4.73;;;28.90;92.00;;;;;;5023234;28;20176;-73
2022/06/19 06:47:10;;;;;;;8.60;4.30;;;29.00;91.10;;;;;;5023211;28;20210;-74
2022/06/19 06:49:36;;;;;;;9.50;4.50;;;29.10;90.70;;;;;;5022357;28;20187;-73
2022/06/19 06:52:02;;;;;;;10.67;4.80;;;29.30;91.10;;;;;;5025788;28;20193;-73
2022/06/19 06:54:28;;;;;;;12.50;4.87;;;29.30;88.30;;;;;;5027060;28;20251;-73
2022/06/19 06:56:55;;;;;;;15.17;5.33;;;29.50;88.20;;;;;;5026821;28;20445;-71
2022/06/19 06:59:20;;;;;;;16.00;4.87;;;29.60;88.00;;;;;;5027014;28;20410;-72
2022/06/19 07:01:46;;;;;;;11.80;4.60;;;29.70;90.10;;;;;;5026705;28;20420;-71
2022/06/19 07:04:12;;;;;;;10.80;4.70;;;29.70;88.70;;;;;;5026970;28;20692;-71
2022/06/19 07:06:37;;;;;;;7.80;5.40;;;29.90;86.40;;;;;;5026446;28;20199;-72
2022/06/19 07:09:04;;;;;;;14.27;5.60;;;30.10;90.00;;;;;;5026732;28;20183;-73
2022/06/19 07:11:37;;;;;;;15.73;5.00;;;29.90;90.70;;;;;;5026541;28;20192;-72
2022/06/19 07:14:03;;;;;;;8.17;4.93;;;29.80;91.60;;;;;;5025233;28;20465;-75
2022/06/19 07:16:29;;;;;;;12.60;4.47;;;29.70;91.30;;;;;;5026663;28;20438;-73
2022/06/19 07:18:55;;;;;;;10.90;4.90;;;29.80;91.60;;;;;;5026716;28;20432;-74
2022/06/19 07:21:21;;;;;;;11.40;5.90;;;29.60;91.60;;;;;;5026355;28;20644;-72
2022/06/19 07:23:47;;;;;;;11.63;4.90;;;29.40;92.30;;;;;;5026586;28;20206;-72
2022/06/19 07:26:16;;;;;;;13.17;4.93;;;29.50;92.20;;;;;;5026617;28;20966;-72
2022/06/19 07:28:42;;;;;;;12.90;4.80;;;29.60;91.90;;;;;;5026360;28;20425;-73
2022/06/19 07:31:09;;;;;;;11.67;5.33;;;29.70;91.90;;;;;;5026186;28;20494;-73
2022/06/19 07:33:35;;;;;;;9.97;4.80;;;29.80;92.20;;;;;;5026516;28;20465;-72
2022/06/19 07:36:01;;;;;;;11.63;4.90;;;29.80;92.50;;;;;;5026129;28;20515;-73
2022/06/19 07:38:27;;;;;;;11.93;5.63;;;29.90;92.20;;;;;;5024396;28;20802;-72
2022/06/19 07:40:52;;;;;;;10.10;5.80;;;29.70;92.10;;;;;;5026016;28;20406;-72
2022/06/19 07:43:18;;;;;;;11.50;6.00;;;29.80;92.10;;;;;;5025428;28;20175;-70
2022/06/19 07:45:43;;;;;;;10.10;6.30;;;29.90;91.80;;;;;;5026144;28;20683;-72
2022/06/19 07:50:54;;;;;;;10.63;6.60;;;30.00;91.20;;;;;;5026387;28;20722;-72
2022/06/19 07:53:20;;;;;;;11.73;6.37;;;30.20;91.30;;;;;;5024216;28;20450;-71
2022/06/19 07:55:46;;;;;;;10.77;6.87;;;30.30;91.20;;;;;;5025674;28;20269;-73
2022/06/19 07:58:11;;;;;;;13.70;7.03;;;30.20;91.10;;;;;;5025670;28;20454;-72
2022/06/19 08:00:37;;;;;;;8.97;6.33;;;30.10;91.00;;;;;;5025711;28;20183;-73
2022/06/19 08:03:04;;;;;;;11.33;6.83;;;30.20;91.50;;;;;;5025516;28;20219;-72
2022/06/19 08:05:34;;;;;;;12.77;7.27;;;30.20;92.00;;;;;;5025455;28;20418;-73
2022/06/19 08:08:01;;;;;;;21.33;8.03;;;30.20;92.30;;;;;;5025301;28;20497;-73
2022/06/19 08:10:39;;;;;;;9.70;6.10;;;30.30;91.50;;;;;;5025738;28;20497;-73
2022/06/19 08:13:05;;;;;;;11.40;6.77;;;30.40;91.70;;;;;;5025751;28;20465;-75
2022/06/19 08:15:33;;;;;;;11.77;6.77;;;30.70;91.60;;;;;;5025327;28;20442;-73
2022/06/19 08:17:59;;;;;;;15.90;8.13;;;30.80;90.70;;;;;;5025931;28;20406;-73
2022/06/19 08:20:25;;;;;;;15.33;7.93;;;30.90;90.10;;;;;;5025896;28;20517;-73
2022/06/19 08:22:51;;;;;;;13.43;8.47;;;31.10;89.70;;;;;;5025965;28;20410;-73
2022/06/19 08:25:19;;;;;;;11.30;7.87;;;31.30;87.70;;;;;;5025915;28;20934;-73
2022/06/19 08:27:48;;;;;;;13.50;8.00;;;31.40;88.70;;;;;;5026034;28;20884;-73
2022/06/19 08:30:23;;;;;;;21.07;9.73;;;31.60;88.10;;;;;;5025832;28;20406;-74
2022/06/19 08:32:50;;;;;;;10.57;9.10;;;31.80;82.60;;;;;;5025481;28;20484;-72
2022/06/19 08:35:15;;;;;;;13.75;9.90;;;31.80;81.80;;;;;;5025564;28;20488;-72
2022/06/19 08:37:43;;;;;;;12.23;9.33;;;31.90;81.40;;;;;;5025052;28;20671;-71
2022/06/19 08:40:35;;;;;;;12.90;9.20;;;32.00;81.10;;;;;;5025335;28;20206;-73
2022/06/19 08:43:06;;;;;;;11.93;9.50;;;32.10;79.80;;;;;;5025572;28;20867;-70
2022/06/19 08:45:47;;;;;;;10.47;9.37;;;32.20;78.80;;;;;;5025480;28;20414;-72
2022/06/19 08:48:35;;;;;;;11.40;9.73;;;32.20;78.90;;;;;;5026154;28;20463;-71
2022/06/19 08:51:06;;;;;;;19.53;10.77;;;32.30;76.50;;;;;;5026124;28;20436;-71
2022/06/19 08:53:57;;;;;;;13.80;10.20;;;32.40;77.60;;;;;;5025436;28;20511;-73
2022/06/19 08:56:35;;;;;;;16.10;9.40;;;32.40;73.90;;;;;;5025361;28;20468;-74
2022/06/19 08:59:11;;;;;;;12.53;9.50;;;32.50;74.20;;;;;;5025543;28;20405;-70
2022/06/19 09:01:46;;;;;;;19.57;9.97;;;32.70;70.00;;;;;;5025598;28;20827;-70
2022/06/19 09:07:14;;;;;;;12.40;8.87;;;32.80;65.20;;;;;;5024776;28;20452;-71
2022/06/19 09:10:33;;;;;;;15.57;9.40;;;32.90;64.50;;;;;;5025222;28;20414;-73
2022/06/19 09:13:01;;;;;;;9.37;8.23;;;32.90;62.30;;;;;;4963315;28;20602;-73
2022/06/19 09:15:42;;;;;;;13.10;8.53;;;33.10;62.70;;;;;;5021207;28;20454;-72
2022/06/19 09:18:32;;;;;;;13.87;9.07;;;33.20;62.60;;;;;;5024916;28;20508;-73
2022/06/19 09:21:24;;;;;;;11.80;8.67;;;33.40;61.50;;;;;;5024477;28;20410;-72
2022/06/19 09:24:08;;;;;;;12.17;8.10;;;33.50;57.20;;;;;;5024591;28;20934;-72
2022/06/19 09:26:41;;;;;;;11.30;7.67;;;33.30;57.20;;;;;;5024975;28;20433;-72
2022/06/19 09:29:11;;;;;;;14.77;7.93;;;33.40;58.80;;;;;;5025307;28;20413;-72
2022/06/19 09:31:45;;;;;;;24.73;9.13;;;33.50;57.00;;;;;;5025059;28;20402;-72
2022/06/19 09:34:16;;;;;;;11.57;7.83;;;33.60;57.40;;;;;;5024908;28;20537;-72
2022/06/19 09:36:57;;;;;;;11.17;7.80;;;33.60;56.70;;;;;;5024406;28;20977;-72
2022/06/19 09:39:55;;;;;;;12.40;7.40;;;33.70;55.60;;;;;;5042102;22;20500;-72
2022/06/19 09:42:32;;;;;;;9.60;7.03;;;33.60;53.70;;;;;;5009080;28;20425;-74
2022/06/19 09:45:13;;;;;;;13.13;7.83;;;33.50;53.90;;;;;;5044360;28;20401;-70
2022/06/19 09:48:06;;;;;;;11.37;7.13;;;33.70;54.00;;;;;;5041281;28;20406;-70
2022/06/19 09:50:46;;;;;;;11.80;7.00;;;33.90;53.80;;;;;;5043745;28;20452;-71
2022/06/19 09:53:36;;;;;;;7.17;6.47;;;34.10;52.70;;;;;;5044361;28;20445;-70
2022/06/19 09:56:15;;;;;;;17.40;6.60;;;34.20;50.50;;;;;;5041805;28;20429;-71
2022/06/19 09:58:54;;;;;;;18.07;6.77;;;33.90;50.20;;;;;;5042052;28;20422;-70
2022/06/19 10:01:23;;;;;;;9.43;6.67;;;34.10;50.60;;;;;;5044232;28;20476;-69
2022/06/19 10:03:57;;;;;;;12.90;7.20;;;34.30;50.80;;;;;;5025695;28;20425;-70
2022/06/19 10:06:40;;;;;;;13.00;8.30;;;34.40;50.60;;;;;;5024803;28;20508;-69
2022/06/19 10:09:44;;;;;;;9.37;6.97;;;34.40;50.40;;;;;;5024099;28;20513;-71
2022/06/19 10:12:16;;;;;;;11.77;6.70;;;34.30;50.00;;;;;;5012493;28;20429;-70
2022/06/19 10:14:46;;;;;;;10.23;7.67;;;34.50;50.50;;;;;;5024567;28;20767;-71
2022/06/19 10:17:33;;;;;;;12.87;7.47;;;34.40;50.80;;;;;;5024887;28;20401;-71
2022/06/19 10:20:03;;;;;;;17.13;8.03;;;34.50;50.00;;;;;;5024196;28;20426;-71
2022/06/19 10:22:41;;;;;;;9.93;7.50;;;34.50;50.60;;;;;;5024461;28;20410;-71
2022/06/19 10:25:09;;;;;;;16.43;8.37;;;34.50;50.60;;;;;;5025256;28;20409;-71
2022/06/19 10:28:02;;;;;;;10.23;7.40;;;34.60;50.00;;;;;;5027736;28;20397;-71
2022/06/19 10:30:32;;;;;;;13.03;6.87;;;34.60;50.00;;;;;;5028104;28;20938;-71
2022/06/19 10:33:26;;;;;;;10.43;7.67;;;34.80;49.30;;;;;;5028444;28;20450;-71
2022/06/19 10:36:04;;;;;;;9.93;7.37;;;34.80;49.50;;;;;;5027478;28;20402;-73
2022/06/19 10:39:07;;;;;;;11.73;7.97;;;34.80;49.70;;;;;;5027610;28;20390;-69
2022/06/19 10:42:00;;;;;;;11.30;6.87;;;35.20;50.40;;;;;;5027756;28;20401;-70
2022/06/19 10:44:44;;;;;;;10.80;8.17;;;35.50;48.00;;;;;;5027700;28;20398;-70
2022/06/19 10:47:13;;;;;;;13.37;7.33;;;35.40;47.40;;;;;;5027178;28;20417;-71
2022/06/19 10:50:03;;;;;;;15.87;7.63;;;35.20;47.80;;;;;;5027688;28;20443;-72
2022/06/19 10:52:35;;;;;;;11.07;6.97;;;35.30;47.60;;;;;;5027807;28;20813;-71
2022/06/19 10:55:03;;;;;;;9.57;7.13;;;35.40;47.50;;;;;;5028181;28;20467;-72
2022/06/19 10:58:10;;;;;;;13.13;8.50;;;35.80;48.00;;;;;;5027669;28;20485;-71
2022/06/19 11:00:36;;;;;;;15.23;8.07;;;35.70;47.20;;;;;;5025890;28;20469;-71
2022/06/19 11:06:12;;;;;;;8.63;7.00;;;36.00;47.40;;;;;;5027891;28;20186;-71
2022/06/19 11:08:43;;;;;;;11.00;6.87;;;35.70;46.10;;;;;;5027336;28;20450;-73
2022/06/19 11:11:14;;;;;;;11.43;7.40;;;35.60;46.30;;;;;;5025465;28;20488;-71
2022/06/19 11:14:00;;;;;;;13.30;7.17;;;35.70;47.20;;;;;;5026902;28;20567;-71
2022/06/19 11:16:29;;;;;;;11.13;7.00;;;35.90;45.80;;;;;;5025304;28;21435;-71
2022/06/19 11:19:29;;;;;;;10.83;6.50;;;35.80;44.70;;;;;;5028663;28;20438;-71
2022/06/19 11:21:55;;;;;;;19.50;6.77;;;36.00;44.40;;;;;;5026459;28;20449;-68
2022/06/19 11:24:27;;;;;;;8.93;6.93;;;35.90;45.20;;;;;;5025854;28;20904;-71
2022/06/19 11:26:55;;;;;;;14.73;6.90;;;35.80;45.40;;;;;;5026712;28;20257;-71
2022/06/19 11:29:24;;;;;;;7.53;6.10;;;36.00;44.90;;;;;;5025425;28;20524;-72
2022/06/19 11:32:10;;;;;;;10.67;6.70;;;36.50;45.20;;;;;;5025890;28;20926;-71
2022/06/19 11:34:44;;;;;;;12.30;7.07;;;37.40;44.00;;;;;;5027011;28;20416;-71
2022/06/19 11:37:23;;;;;;;10.93;6.47;;;38.50;42.40;;;;;;5026295;28;20421;-70
2022/06/19 11:39:53;;;;;;;11.93;6.43;;;39.40;41.00;;;;;;5026909;28;20476;-72
2022/06/19 11:42:19;;;;;;;10.87;6.50;;;39.90;39.40;;;;;;5026811;28;20421;-72
2022/06/19 11:45:16;;;;;;;8.00;6.30;;;40.00;38.50;;;;;;5026489;28;20440;-69
2022/06/19 11:47:53;;;;;;;8.80;6.70;;;40.40;37.80;;;;;;5018260;28;20183;-70
2022/06/19 11:50:25;;;;;;;9.57;6.63;;;40.70;38.10;;;;;;5026989;28;20429;-71
2022/06/19 11:53:16;;;;;;;12.90;6.53;;;39.80;37.60;;;;;;5026304;28;20437;-69
2022/06/19 11:56:09;;;;;;;11.27;6.90;;;40.30;37.70;;;;;;5023413;28;20770;-71
2022/06/19 11:58:37;;;;;;;11.53;5.70;;;40.50;36.70;;;;;;5018915;28;20426;-71
2022/06/19 12:01:15;;;;;;;12.60;7.10;;;41.00;36.90;;;;;;5026528;28;20413;-71
2022/06/19 12:03:55;;;;;;;9.87;6.43;;;42.40;35.10;;;;;;5026454;28;20455;-71
2022/06/19 12:06:45;;;;;;;5.80;5.23;;;42.40;34.70;;;;;;5026797;28;20883;-71
2022/06/19 12:09:28;;;;;;;12.00;6.17;;;43.10;34.00;;;;;;5026004;28;20425;-71
2022/06/19 12:12:18;;;;;;;11.37;6.23;;;42.50;34.40;;;;;;5026461;28;20487;-71
2022/06/19 12:14:46;;;;;;;11.67;6.50;;;42.10;34.50;;;;;;5023107;28;20690;-72
2022/06/19 12:17:26;;;;;;;8.20;6.33;;;41.60;34.70;;;;;;5025898;28;20479;-70
2022/06/19 12:20:15;;;;;;;10.30;5.93;;;41.40;34.60;;;;;;5026273;28;20429;-70
2022/06/19 12:23:16;;;;;;;10.90;6.30;;;41.50;34.60;;;;;;5022901;28;20425;-71
2022/06/19 12:26:05;;;;;;;9.10;6.00;;;42.10;33.90;;;;;;4993370;28;20421;-72
2022/06/19 12:28:52;;;;;;;11.63;6.17;;;42.00;34.00;;;;;;5022281;28;20457;-69
2022/06/19 12:31:26;;;;;;;9.90;6.13;;;42.60;33.90;;;;;;5025708;28;20412;-73
2022/06/19 12:33:57;;;;;;;9.73;6.13;;;42.30;33.60;;;;;;5026473;28;20441;-71
2022/06/19 12:36:28;;;;;;;12.43;6.10;;;42.10;33.70;;;;;;5025687;28;20401;-71
2022/06/19 12:38:54;;;;;;;8.80;5.97;;;42.50;33.20;;;;;;5025447;28;20471;-70
2022/06/19 12:41:49;;;;;;;9.83;6.27;;;43.00;32.30;;;;;;5025149;28;20760;-72
2022/06/19 12:44:26;;;;;;;13.30;6.53;;;42.70;32.40;;;;;;5025287;28;20447;-71
2022/06/19 12:47:09;;;;;;;8.33;5.20;;;41.50;33.30;;;;;;5025430;28;20931;-69
2022/06/19 12:49:43;;;;;;;13.80;5.50;;;41.60;33.00;;;;;;5025364;28;20831;-71
2022/06/19 12:52:42;;;;;;;16.30;6.20;;;41.90;32.90;;;;;;5025587;28;20940;-71
2022/06/19 12:55:16;;;;;;;13.30;6.20;;;42.50;32.60;;;;;;5016126;28;20528;-71
2022/06/19 12:58:00;;;;;;;11.87;5.50;;;43.80;33.10;;;;;;5024873;28;20442;-70
2022/06/19 13:00:44;;;;;;;10.33;5.57;;;44.40;31.20;;;;;;5025230;28;20212;-69
2022/06/19 13:03:31;;;;;;;15.60;6.22;;;44.30;31.30;;;;;;5024847;28;20250;-70
2022/06/19 13:06:25;;;;;;;10.65;5.47;;;44.40;30.10;;;;;;5024849;28;20208;-69
2022/06/19 13:08:53;;;;;;;14.82;6.00;;;44.10;31.10;;;;;;5024702;28;20224;-71
2022/06/19 13:11:37;;;;;;;8.47;5.90;;;44.90;30.30;;;;;;5024593;28;20244;-71
2022/06/19 13:14:22;;;;;;;8.50;5.60;;;43.80;30.50;;;;;;5024916;28;20213;-71